Time;durP1;ratioP1;P1;durP2;ratioP2;P2;SDS_P1;SDS_P2;PMS_P1;PMS_P2;Temp;Humidity;BMP_temperature;BMP_pressure;BME280_temperature;BME280_humidity;BME280_pressure;Samples;Min_cycle;Max_cycle;Signal;HPM_P1;HPM_P2
2021/01/22 00:01:39;;;;;;;;;;;;;;;2.40;100.00;96794.38;5116307;28;19923;-81
2021/01/22 00:04:05;;;;;;;;;;;;;;;2.39;100.00;96803.84;5116127;28;19924;-81
2021/01/22 00:06:32;;;;;;;;;;;;;;;2.39;100.00;96799.13;5117344;28;19931;-80
2021/01/22 00:08:59;;;;;;;;;;;;;;;2.30;100.00;96798.91;5116027;28;19924;-80
2021/01/22 00:11:25;;;;;;;;;;;;;;;2.30;100.00;96809.94;5117324;28;19923;-80
2021/01/22 00:13:52;;;;;;;;;;;;;;;2.30;100.00;96809.13;5117039;28;19927;-80
2021/01/22 00:16:18;;;;;;;;;;;;;;;2.31;100.00;96819.75;5117128;28;19923;-80
2021/01/22 00:18:46;;;;;;;;;;;;;;;2.36;100.00;96826.72;5115958;28;19931;-80
2021/01/22 00:21:12;;;;;;;;;;;;;;;2.33;100.00;96806.31;5115755;28;19924;-80
2021/01/22 00:23:39;;;;;;;;;;;;;;;2.35;100.00;96825.19;5098735;28;19923;-80
2021/01/22 00:26:06;;;;;;;;;;;;;;;2.33;100.00;96806.31;5098839;28;19924;-80
2021/01/22 00:28:33;;;;;;;;;;;;;;;2.28;100.00;96809.56;5116994;28;19982;-80
2021/01/22 00:31:00;;;;;;;;;;;;;;;2.21;100.00;96792.41;5116940;28;19928;-80
2021/01/22 00:33:27;;;;;;;;;;;;;;;2.23;100.00;96810.03;5115611;28;20312;-80
2021/01/22 00:35:53;;;;;;;;;;;;;;;2.22;100.00;96780.16;5116977;28;20426;-80
2021/01/22 00:38:20;;;;;;;;;;;;;;;2.22;100.00;96799.44;5116534;28;19928;-80
2021/01/22 00:40:47;;;;;;;;;;;;;;;2.18;100.00;96809.78;5115898;28;19946;-80
2021/01/22 00:43:13;;;;;;;;;;;;;;;2.18;100.00;96815.28;5115509;28;19924;-80
2021/01/22 00:45:40;;;;;;;;;;;;;;;2.19;100.00;96825.09;5115441;28;19978;-80
2021/01/22 00:48:06;;;;;;;;;;;;;;;2.18;100.00;96818.78;5115464;28;19923;-80
2021/01/22 00:50:33;;;;;;;;;;;;;;;2.18;100.00;96837.31;5115081;28;20370;-80
2021/01/22 00:53:00;;;;;;;;;;;;;;;2.15;100.00;96832.66;5098180;28;19972;-80
2021/01/22 00:55:27;;;;;;;;;;;;;;;2.18;100.00;96831.81;5115351;28;19924;-80
2021/01/22 00:58:13;;;;;;;;;;;;;;;2.18;100.00;96820.78;5115461;28;20385;-80
2021/01/22 01:00:40;;;;;;;;;;;;;;;2.20;100.00;96843.16;5113907;28;19928;-80
2021/01/22 01:03:23;;;;;;;;;;;;;;;2.20;100.00;96856.94;5121467;28;19924;-81
2021/01/22 01:05:50;;;;;;;;;;;;;;;2.25;100.00;96851.75;5103920;28;19931;-80
2021/01/22 01:08:17;;;;;;;;;;;;;;;2.32;100.00;96853.59;5104655;28;20393;-80
2021/01/22 01:11:03;;;;;;;;;;;;;;;2.33;100.00;96866.94;5121816;28;20020;-80
2021/01/22 01:13:42;;;;;;;;;;;;;;;2.41;100.00;96868.34;5121129;28;19924;-81
2021/01/22 01:16:19;;;;;;;;;;;;;;;2.47;100.00;96885.19;5115946;28;20382;-81
2021/01/22 01:18:46;;;;;;;;;;;;;;;2.55;100.00;96886.59;5115966;28;19924;-81
2021/01/22 01:21:12;;;;;;;;;;;;;;;2.59;100.00;96890.84;5115934;28;19930;-81
2021/01/22 01:23:39;;;;;;;;;;;;;;;2.57;100.00;96886.97;5115953;28;19924;-81
2021/01/22 01:26:05;;;;;;;;;;;;;;;2.60;100.00;96897.94;5115913;28;19928;-80
2021/01/22 01:28:32;;;;;;;;;;;;;;;2.62;100.00;96894.75;5115737;28;19931;-81
2021/01/22 01:30:59;;;;;;;;;;;;;;;2.63;100.00;96891.56;5115765;28;19924;-80
2021/01/22 01:33:25;;;;;;;;;;;;;;;2.62;100.00;96901.03;5114513;28;19924;-81
2021/01/22 01:35:52;;;;;;;;;;;;;;;2.63;100.00;96888.81;5115552;28;20011;-81
2021/01/22 01:38:19;;;;;;;;;;;;;;;2.64;100.00;96901.38;5115604;28;19931;-81
2021/01/22 01:40:46;;;;;;;;;;;;;;;2.63;100.00;96894.31;5114472;28;20321;-81
2021/01/22 01:43:12;;;;;;;;;;;;;;;2.65;100.00;96893.91;5114258;28;19924;-81
2021/01/22 01:45:40;;;;;;;;;;;;;;;2.63;100.00;96888.81;5114427;28;19931;-81
2021/01/22 01:48:10;;;;;;;;;;;;;;;2.63;100.00;96896.28;5115516;28;19931;-80
2021/01/22 01:50:37;;;;;;;;;;;;;;;2.58;100.00;96894.81;5115279;28;19976;-80
2021/01/22 01:53:04;;;;;;;;;;;;;;;2.53;100.00;96886.25;5115346;28;19924;-81
2021/01/22 01:55:32;;;;;;;;;;;;;;;2.52;100.00;96884.69;5115330;28;20022;-80
2021/01/22 01:57:59;;;;;;;;;;;;;;;2.56;100.00;96891.69;5115234;28;20298;-80
2021/01/22 02:00:26;;;;;;;;;;;;;;;2.57;100.00;96889.72;5096985;28;19923;-80
2021/01/22 02:02:52;;;;;;;;;;;;;;;2.58;100.00;96894.03;5115083;28;19927;-81
2021/01/22 02:05:19;;;;;;;;;;;;;;;2.59;100.00;96893.59;5115000;28;19923;-81
2021/01/22 02:07:46;;;;;;;;;;;;;;;2.65;100.00;96897.41;5115177;28;20181;-80
2021/01/22 02:10:13;;;;;;;;;;;;;;;2.63;100.00;96890.78;5113695;28;20018;-81
2021/01/22 02:12:40;;;;;;;;;;;;;;;2.63;100.00;96894.31;5096224;28;19931;-81
2021/01/22 02:15:08;;;;;;;;;;;;;;;2.63;100.00;96901.81;5115028;28;19923;-81
2021/01/22 02:17:35;;;;;;;;;;;;;;;2.63;100.00;96899.06;5114915;28;19924;-81
2021/01/22 02:20:21;;;;;;;;;;;;;;;2.62;100.00;96900.25;5114796;28;19931;-81
2021/01/22 02:22:47;;;;;;;;;;;;;;;2.64;100.00;96906.13;5114585;28;19931;-80
2021/01/22 02:25:15;;;;;;;;;;;;;;;2.66;100.00;96895.44;5114779;28;19980;-80
2021/01/22 02:27:41;;;;;;;;;;;;;;;2.66;100.00;96912.00;5114585;28;19924;-80
2021/01/22 02:30:08;;;;;;;;;;;;;;;2.66;100.00;96910.03;5113556;28;20369;-80
2021/01/22 02:32:36;;;;;;;;;;;;;;;2.64;100.00;96914.38;5114420;28;20423;-80
2021/01/22 02:35:05;;;;;;;;;;;;;;;2.57;100.00;96920.81;5114411;28;20022;-80
2021/01/22 02:37:32;;;;;;;;;;;;;;;2.58;100.00;96914.09;5114457;28;19924;-80
2021/01/22 02:40:00;;;;;;;;;;;;;;;2.57;100.00;96909.00;5113304;28;19930;-80
2021/01/22 02:42:28;;;;;;;;;;;;;;;2.55;100.00;96908.66;5114150;28;19924;-80
2021/01/22 02:44:55;;;;;;;;;;;;;;;2.54;100.00;96909.84;5114428;28;20018;-80
2021/01/22 02:47:24;;;;;;;;;;;;;;;2.49;100.00;96913.09;5114141;28;19924;-80
2021/01/22 02:49:51;;;;;;;;;;;;;;;2.38;100.00;96907.78;5114245;28;19928;-81
2021/01/22 02:52:19;;;;;;;;;;;;;;;2.28;100.00;96902.47;5112843;28;20028;-80
2021/01/22 02:54:50;;;;;;;;;;;;;;;2.36;100.00;96899.19;5112931;28;19930;-80
2021/01/22 02:57:32;;;;;;;;;;;;;;;2.39;100.00;96914.06;5112880;28;19928;-80
2021/01/22 03:00:19;;;;;;;;;;;;;;;2.43;100.00;96906.50;5112960;28;19924;-80
2021/01/22 03:02:48;;;;;;;;;;;;;;;2.40;100.00;96905.38;5095736;28;19923;-80
2021/01/22 03:05:18;;;;;;;;;;;;;;;2.41;100.00;96922.72;5096119;28;20021;-80
2021/01/22 03:07:48;;;;;;;;;;;;;;;2.42;100.00;96918.75;5113983;28;20370;-80
2021/01/22 03:10:17;;;;;;;;;;;;;;;2.38;100.00;96929.81;5114011;28;20339;-80
2021/01/22 03:12:47;;;;;;;;;;;;;;;2.38;100.00;96945.59;5113723;28;19931;-80
2021/01/22 03:15:21;;;;;;;;;;;;;;;2.34;100.00;96944.88;5113733;28;19923;-80
2021/01/22 03:17:48;;;;;;;;;;;;;;;2.24;100.00;96960.41;5113634;28;20385;-80
2021/01/22 03:20:15;;;;;;;;;;;;;;;2.11;100.00;96942.09;5113758;28;20377;-80
2021/01/22 03:22:42;;;;;;;;;;;;;;;1.96;100.00;96946.28;5112450;28;19931;-80
2021/01/22 03:25:12;;;;;;;;;;;;;;;1.76;100.00;96938.72;5112905;28;19924;-80
2021/01/22 03:27:40;;;;;;;;;;;;;;;1.72;100.00;96928.97;5113722;28;20346;-80
2021/01/22 03:30:07;;;;;;;;;;;;;;;1.70;100.00;96940.41;5113418;28;20007;-79
2021/01/22 03:32:34;;;;;;;;;;;;;;;1.73;100.00;96947.81;5112414;28;19930;-80
2021/01/22 03:35:00;;;;;;;;;;;;;;;1.71;100.00;96952.94;5113536;28;19975;-80
2021/01/22 03:37:27;;;;;;;;;;;;;;;1.64;100.00;96960.53;5112411;28;19924;-80
2021/01/22 03:39:53;;;;;;;;;;;;;;;1.62;100.00;96971.19;5113452;28;19931;-80
2021/01/22 03:42:20;;;;;;;;;;;;;;;1.66;100.00;96980.97;5113390;28;19928;-80
2021/01/22 03:44:46;;;;;;;;;;;;;;;1.68;100.00;96992.31;5113329;28;19924;-80
2021/01/22 03:47:13;;;;;;;;;;;;;;;1.73;100.00;97010.34;5113512;28;19985;-80
2021/01/22 03:49:40;;;;;;;;;;;;;;;1.75;100.00;97018.97;5095298;28;20022;-79
2021/01/22 03:52:06;;;;;;;;;;;;;;;1.77;100.00;97036.63;5112184;28;19924;-80
2021/01/22 03:54:33;;;;;;;;;;;;;;;1.82;100.00;97047.19;5111953;28;19955;-80
2021/01/22 03:56:59;;;;;;;;;;;;;;;1.83;100.00;97034.97;5113402;28;20301;-79
2021/01/22 03:59:26;;;;;;;;;;;;;;;1.84;100.00;97052.28;5111998;28;19945;-79
2021/01/22 04:01:52;;;;;;;;;;;;;;;1.81;100.00;97045.66;5113473;28;19977;-79
2021/01/22 04:04:19;;;;;;;;;;;;;;;1.82;100.00;97046.41;5095109;28;19927;-80
2021/01/22 04:06:56;;;;;;;;;;;;;;;1.82;100.00;97047.19;5113334;28;19923;-79
2021/01/22 04:09:22;;;;;;;;;;;;;;;1.83;100.00;97045.22;5113237;28;19923;-79
2021/01/22 04:11:49;;;;;;;;;;;;;;;1.82;100.00;97041.69;5095030;28;20289;-79
2021/01/22 04:14:16;;;;;;;;;;;;;;;1.91;100.00;97056.94;5112827;28;19971;-80
2021/01/22 04:16:42;;;;;;;;;;;;;;;1.97;100.00;97058.03;5113264;28;19986;-79
2021/01/22 04:19:09;;;;;;;;;;;;;;;2.00;100.00;97051.69;5113215;28;20278;-80
2021/01/22 04:21:35;;;;;;;;;;;;;;;2.12;100.00;97062.88;5111881;28;19931;-80
2021/01/22 04:24:02;;;;;;;;;;;;;;;2.21;100.00;97063.19;5111805;28;19924;-79
2021/01/22 04:26:28;;;;;;;;;;;;;;;2.29;100.00;97080.38;5113157;28;20012;-80
2021/01/22 04:28:57;;;;;;;;;;;;;;;2.30;100.00;97081.94;5112862;28;20437;-80
2021/01/22 04:31:23;;;;;;;;;;;;;;;2.35;100.00;97079.47;5113092;28;20165;-80
2021/01/22 04:33:50;;;;;;;;;;;;;;;2.41;100.00;97082.56;5112992;28;19927;-80
2021/01/22 04:36:17;;;;;;;;;;;;;;;2.45;100.00;97088.78;5115453;28;19924;-79
2021/01/22 04:38:43;;;;;;;;;;;;;;;2.46;100.00;97098.59;5116868;28;19930;-80
2021/01/22 04:41:10;;;;;;;;;;;;;;;2.42;100.00;97093.16;5115547;28;19931;-80
2021/01/22 04:43:44;;;;;;;;;;;;;;;2.46;100.00;97101.34;5115384;28;20317;-80
2021/01/22 04:46:11;;;;;;;;;;;;;;;2.47;100.00;97098.19;5116731;28;19928;-80
2021/01/22 04:48:40;;;;;;;;;;;;;;;2.42;100.00;97095.13;5098472;28;19972;-80
2021/01/22 04:51:07;;;;;;;;;;;;;;;2.44;100.00;97098.25;5098334;28;19931;-80
2021/01/22 04:53:35;;;;;;;;;;;;;;;2.42;100.00;97100.66;5115216;28;20006;-80
2021/01/22 04:56:03;;;;;;;;;;;;;;;2.43;100.00;97102.97;5116510;28;19961;-80
2021/01/22 04:58:32;;;;;;;;;;;;;;;2.45;100.00;97110.84;5116332;28;19927;-80
2021/01/22 05:00:59;;;;;;;;;;;;;;;2.39;100.00;97123.53;5116351;28;20438;-80
2021/01/22 05:03:26;;;;;;;;;;;;;;;2.34;100.00;97126.75;5115206;28;20405;-80
2021/01/22 05:05:55;;;;;;;;;;;;;;;2.32;100.00;97123.66;5116512;28;19930;-80
2021/01/22 05:08:22;;;;;;;;;;;;;;;2.42;100.00;97139.22;5114908;28;19931;-80
2021/01/22 05:10:49;;;;;;;;;;;;;;;2.36;100.00;97138.13;5116176;28;20057;-79
2021/01/22 05:13:15;;;;;;;;;;;;;;;2.26;100.00;97119.78;5114684;28;20010;-80
2021/01/22 05:15:42;;;;;;;;;;;;;;;2.21;100.00;97134.81;5116027;28;20440;-80
2021/01/22 05:18:08;;;;;;;;;;;;;;;2.18;100.00;97126.59;5116307;28;19931;-80
2021/01/22 05:20:36;;;;;;;;;;;;;;;2.20;100.00;97130.47;5115826;28;19930;-80
2021/01/22 05:23:07;;;;;;;;;;;;;;;2.25;100.00;97130.03;5115909;28;20431;-80
2021/01/22 05:25:52;;;;;;;;;;;;;;;2.21;100.00;97139.53;5115938;28;19955;-80
2021/01/22 05:28:28;;;;;;;;;;;;;;;2.23;100.00;97142.66;5115745;28;20378;-79
2021/01/22 05:30:56;;;;;;;;;;;;;;;2.28;100.00;97150.44;5098044;28;19930;-80
2021/01/22 05:33:23;;;;;;;;;;;;;;;2.37;100.00;97153.47;5115743;28;19923;-79
2021/01/22 05:35:49;;;;;;;;;;;;;;;2.39;100.00;97162.13;5114390;28;19973;-79
2021/01/22 05:38:16;;;;;;;;;;;;;;;2.33;100.00;97152.75;5115674;28;19923;-80
2021/01/22 05:40:49;;;;;;;;;;;;;;;2.23;100.00;97156.44;5115480;28;19962;-80
2021/01/22 05:43:16;;;;;;;;;;;;;;;2.14;100.00;97150.63;5115729;28;19923;-79
2021/01/22 05:45:43;;;;;;;;;;;;;;;2.13;100.00;97160.09;5115572;28;19961;-79
2021/01/22 05:48:20;;;;;;;;;;;;;;;2.09;100.00;97153.88;5114859;28;19972;-79
2021/01/22 05:50:49;;;;;;;;;;;;;;;2.11;100.00;97151.47;5115337;28;20401;-79
2021/01/22 05:53:16;;;;;;;;;;;;;;;2.07;100.00;97157.03;5115391;28;19923;-79
2021/01/22 05:55:43;;;;;;;;;;;;;;;2.04;100.00;97157.06;5113958;28;19923;-79
2021/01/22 05:58:10;;;;;;;;;;;;;;;2.06;100.00;97160.22;5115359;28;20415;-79
2021/01/22 06:00:37;;;;;;;;;;;;;;;2.07;100.00;97172.78;5115421;28;19976;-79
2021/01/22 06:03:21;;;;;;;;;;;;;;;2.11;100.00;97177.03;5115243;28;20014;-80
2021/01/22 06:05:54;;;;;;;;;;;;;;;2.24;100.00;97164.28;5113780;28;19928;-79
2021/01/22 06:08:21;;;;;;;;;;;;;;;2.28;100.00;97167.78;5115458;28;19927;-79
2021/01/22 06:10:50;;;;;;;;;;;;;;;2.32;100.00;97174.00;5113751;28;19923;-80
2021/01/22 06:13:20;;;;;;;;;;;;;;;2.31;100.00;97177.19;5114908;28;20037;-79
2021/01/22 06:15:47;;;;;;;;;;;;;;;2.27;100.00;97176.44;5114908;28;20045;-79
2021/01/22 06:18:16;;;;;;;;;;;;;;;2.27;100.00;97170.94;5114866;28;19930;-79
2021/01/22 06:20:43;;;;;;;;;;;;;;;2.25;100.00;97176.88;5114651;28;19931;-79
2021/01/22 06:23:10;;;;;;;;;;;;;;;2.28;100.00;97172.50;5130615;27;20018;-79
2021/01/22 06:25:38;;;;;;;;;;;;;;;2.32;100.00;97178.75;5113436;28;19924;-79
2021/01/22 06:28:06;;;;;;;;;;;;;;;2.31;100.00;97180.72;5114732;28;19928;-79
2021/01/22 06:30:37;;;;;;;;;;;;;;;2.19;100.00;97184.03;5113533;28;20298;-79
2021/01/22 06:33:05;;;;;;;;;;;;;;;2.09;100.00;97168.41;5113414;28;19931;-79
2021/01/22 06:35:34;;;;;;;;;;;;;;;2.07;100.00;97176.31;5114441;28;19924;-79
2021/01/22 06:38:01;;;;;;;;;;;;;;;2.05;100.00;97170.44;5130367;27;20006;-79
2021/01/22 06:40:28;;;;;;;;;;;;;;;2.02;100.00;97173.22;5114335;28;19923;-79
2021/01/22 06:42:55;;;;;;;;;;;;;;;2.00;100.00;97178.38;5113134;28;19924;-79
2021/01/22 06:45:23;;;;;;;;;;;;;;;1.89;100.00;97184.03;5114286;28;19923;-79
2021/01/22 06:47:57;;;;;;;;;;;;;;;1.86;100.00;97199.38;5113409;28;19976;-82
2021/01/22 06:50:24;;;;;;;;;;;;;;;1.83;100.00;97205.69;5114236;28;20031;-83
2021/01/22 06:53:06;;;;;;;;;;;;;;;1.81;100.00;97204.56;5114375;28;19958;-79
2021/01/22 06:55:33;;;;;;;;;;;;;;;1.82;100.00;97212.41;5099855;28;20436;-79
2021/01/22 06:58:18;;;;;;;;;;;;;;;1.86;100.00;97213.13;5108659;28;19931;-79
2021/01/22 07:00:44;;;;;;;;;;;;;;;1.89;100.00;97217.06;5107166;28;19924;-79
2021/01/22 07:03:31;;;;;;;;;;;;;;;1.91;100.00;97213.91;5108989;28;19924;-79
2021/01/22 07:05:58;;;;;;;;;;;;;;;1.86;100.00;97213.13;5107566;28;19924;-79
2021/01/22 07:08:48;;;;;;;;;;;;;;;1.94;100.00;97224.84;5109164;28;19928;-79
2021/01/22 07:11:15;;;;;;;;;;;;;;;1.96;100.00;97227.19;5099442;28;19924;-79
2021/01/22 07:13:47;;;;;;;;;;;;;;;1.92;100.00;97232.78;5108219;28;19924;-79
2021/01/22 07:16:17;;;;;;;;;;;;;;;1.91;100.00;97222.16;5109133;28;19924;-79
2021/01/22 07:18:44;;;;;;;;;;;;;;;1.90;100.00;97226.88;5109875;28;19927;-79
2021/01/22 07:21:17;;;;;;;;;;;;;;;1.95;100.00;97250.44;5111309;28;19923;-79
2021/01/22 07:23:45;;;;;;;;;;;;;;;1.93;100.00;97237.06;5110538;28;20346;-79
2021/01/22 07:26:12;;;;;;;;;;;;;;;1.96;100.00;97229.97;5113575;28;20301;-79
2021/01/22 07:28:52;;;;;;;;;;;;;;;2.04;100.00;97251.50;5111600;28;20298;-79
2021/01/22 07:31:37;;;;;;;;;;;;;;;2.06;100.00;97259.38;5113007;28;19928;-79
2021/01/22 07:34:04;;;;;;;;;;;;;;;2.09;100.00;97266.81;5114368;28;19927;-79
2021/01/22 07:36:30;;;;;;;;;;;;;;;2.13;100.00;97271.09;5114295;28;19928;-79
2021/01/22 07:38:57;;;;;;;;;;;;;;;2.17;100.00;97277.34;5112918;28;20014;-79
2021/01/22 07:41:24;;;;;;;;;;;;;;;2.16;100.00;97286.00;5114163;28;20411;-80
2021/01/22 07:43:59;;;;;;;;;;;;;;;2.14;100.00;97289.16;5112969;28;19973;-81
2021/01/22 07:46:26;;;;;;;;;;;;;;;2.11;100.00;97280.94;5114277;28;19924;-79
2021/01/22 07:48:52;;;;;;;;;;;;;;;2.08;100.00;97290.03;5114324;28;19924;-80
2021/01/22 07:51:31;;;;;;;;;;;;;;;2.09;100.00;97299.88;5114086;28;20018;-80
2021/01/22 07:53:59;;;;;;;;;;;;;;;2.12;100.00;97301.81;5114463;28;20019;-80
2021/01/22 07:56:36;;;;;;;;;;;;;;;2.09;100.00;97306.13;5114225;28;19950;-80
2021/01/22 07:59:05;;;;;;;;;;;;;;;2.07;100.00;97302.25;5114296;28;19928;-80
2021/01/22 08:01:33;;;;;;;;;;;;;;;2.06;100.00;97319.97;5113761;28;20071;-80
2021/01/22 08:03:59;;;;;;;;;;;;;;;2.02;100.00;97316.44;5114101;28;19924;-80
2021/01/22 08:06:26;;;;;;;;;;;;;;;2.07;100.00;97316.00;5113891;28;20223;-79
2021/01/22 08:09:05;;;;;;;;;;;;;;;2.04;100.00;97317.63;5114021;28;19972;-79
2021/01/22 08:11:32;;;;;;;;;;;;;;;2.12;100.00;97323.84;5116983;28;20322;-79
2021/01/22 08:13:59;;;;;;;;;;;;;;;2.18;100.00;97324.97;5117940;28;19959;-80
2021/01/22 08:16:25;;;;;;;;;;;;;;;2.30;100.00;97324.44;5117959;28;19924;-79
2021/01/22 08:18:52;;;;;;;;;;;;;;;2.31;100.00;97332.28;5118017;28;20030;-79
2021/01/22 08:21:21;;;;;;;;;;;;;;;2.35;100.00;97346.81;5117636;28;20064;-80
2021/01/22 08:23:48;;;;;;;;;;;;;;;2.34;100.00;97347.22;5116751;28;19924;-79
2021/01/22 08:26:15;;;;;;;;;;;;;;;2.28;100.00;97337.84;5118150;28;20427;-80
2021/01/22 08:28:42;;;;;;;;;;;;;;;2.31;100.00;97342.53;5117998;28;20018;-80
2021/01/22 08:31:11;;;;;;;;;;;;;;;2.35;100.00;97354.31;5099770;28;19924;-80
2021/01/22 08:33:39;;;;;;;;;;;;;;;2.33;100.00;97334.63;5118001;28;19927;-80
2021/01/22 08:36:06;;;;;;;;;;;;;;;2.32;100.00;97327.56;5117537;28;19924;-80
2021/01/22 08:38:33;;;;;;;;;;;;;;;2.30;100.00;97332.69;5117856;28;19975;-80
2021/01/22 08:41:00;;;;;;;;;;;;;;;2.24;100.00;97326.06;5099557;28;19931;-81
2021/01/22 08:43:27;;;;;;;;;;;;;;;2.36;100.00;97317.28;5117734;28;20297;-80
2021/01/22 08:46:06;;;;;;;;;;;;;;;2.45;100.00;97323.06;5117707;28;20385;-81
2021/01/22 08:48:33;;;;;;;;;;;;;;;2.51;100.00;97327.72;5117748;28;19946;-80
2021/01/22 08:51:00;;;;;;;;;;;;;;;2.58;100.00;97330.41;5117538;28;19974;-80
2021/01/22 08:53:26;;;;;;;;;;;;;;;2.64;100.00;97333.47;5117824;28;20004;-81
2021/01/22 08:56:28;;;;;;;;;;;;;;;2.73;100.00;97337.28;5099591;28;19958;-80
2021/01/22 08:59:04;;;;;;;;;;;;;;;2.69;100.00;97335.78;5057890;28;19943;-81
2021/01/22 09:01:46;;;;;;;;;;;;;;;2.73;100.00;97319.97;5074480;28;19950;-79
2021/01/22 09:04:31;;;;;;;;;;;;;;;2.71;100.00;97312.09;5074657;28;20426;-81
2021/01/22 09:06:59;;;;;;;;;;;;;;;2.65;100.00;97307.47;5057760;28;20353;-82
2021/01/22 09:09:44;;;;;;;;;;;;;;;2.61;100.00;97303.97;5057425;28;20397;-80
2021/01/22 09:12:13;;;;;;;;;;;;;;;2.56;100.00;97304.44;5058080;28;19924;-81
2021/01/22 09:14:59;;;;;;;;;;;;;;;2.55;100.00;97283.56;5074353;28;19924;-81
2021/01/22 09:17:36;;;;;;;;;;;;;;;2.60;100.00;97289.41;5074352;28;20442;-80
2021/01/22 09:20:05;;;;;;;;;;;;;;;2.67;100.00;97277.50;5074229;28;19931;-81
2021/01/22 09:22:32;;;;;;;;;;;;;;;2.73;100.00;97292.38;5073159;28;19928;-81
2021/01/22 09:25:06;;;;;;;;;;;;;;;2.83;100.00;97297.75;5057373;28;19924;-81
2021/01/22 09:27:33;;;;;;;;;;;;;;;2.90;100.00;97286.63;5073655;28;19959;-79
2021/01/22 09:30:00;;;;;;;;;;;;;;;2.88;100.00;97293.75;5057479;28;19970;-80
2021/01/22 09:32:29;;;;;;;;;;;;;;;2.85;100.00;97289.84;5086954;28;20453;-80
2021/01/22 09:34:56;;;;;;;;;;;;;;;2.73;100.00;97281.34;5116339;28;20369;-77
2021/01/22 09:37:22;;;;;;;;;;;;;;;2.67;100.00;97267.25;5116265;28;19924;-77
2021/01/22 09:39:49;;;;;;;;;;;;;;;2.71;100.00;97278.25;5116296;28;20294;-78
2021/01/22 09:42:16;;;;;;;;;;;;;;;2.73;100.00;97259.28;5116218;28;19924;-78
2021/01/22 09:44:43;;;;;;;;;;;;;;;2.75;100.00;97267.94;5116041;28;20389;-79
2021/01/22 09:47:09;;;;;;;;;;;;;;;2.77;100.00;97243.50;5115036;28;19924;-80
2021/01/22 09:49:36;;;;;;;;;;;;;;;2.82;100.00;97256.78;5116399;28;20321;-79
2021/01/22 09:52:03;;;;;;;;;;;;;;;2.82;100.00;97263.09;5116133;28;19931;-81
2021/01/22 09:54:29;;;;;;;;;;;;;;;2.83;100.00;97236.31;5114875;28;20012;-79
2021/01/22 09:56:56;;;;;;;;;;;;;;;2.85;100.00;97242.97;5115993;28;19923;-79
2021/01/22 09:59:22;;;;;;;;;;;;;;;2.86;100.00;97243.75;5116032;28;20986;-80
2021/01/22 10:01:49;;;;;;;;;;;;;;;2.85;100.00;97228.38;5115697;28;19924;-80
2021/01/22 10:04:18;;;;;;;;;;;;;;;2.82;100.00;97226.47;5113970;28;19928;-79
2021/01/22 10:06:45;;;;;;;;;;;;;;;2.81;100.00;97222.94;5095337;28;19924;-80
2021/01/22 10:09:11;;;;;;;;;;;;;;;2.81;100.00;97219.38;5100336;28;19935;-80
2021/01/22 10:11:39;;;;;;;;;;;;;;;2.82;100.00;97231.97;5102267;28;19924;-79
2021/01/22 10:14:06;;;;;;;;;;;;;;;2.84;100.00;97224.06;5083732;28;19924;-79
2021/01/22 10:16:35;;;;;;;;;;;;;;;2.89;100.00;97221.63;5101596;28;20058;-80
2021/01/22 10:19:02;;;;;;;;;;;;;;;2.92;100.00;97211.75;5101885;28;19934;-81
2021/01/22 10:21:28;;;;;;;;;;;;;;;2.93;100.00;97227.09;5101579;28;19931;-80
2021/01/22 10:23:55;;;;;;;;;;;;;;;2.98;100.00;97226.63;5103142;28;19924;-80
2021/01/22 10:26:22;;;;;;;;;;;;;;;2.95;100.00;97213.66;5114430;28;19984;-78
2021/01/22 10:28:49;;;;;;;;;;;;;;;2.96;100.00;97223.50;5115845;28;19931;-78
2021/01/22 10:31:16;;;;;;;;;;;;;;;3.00;100.00;97229.75;5105605;28;19932;-79
2021/01/22 10:33:45;;;;;;;;;;;;;;;3.05;100.00;97204.44;5109209;28;19981;-79
2021/01/22 10:36:12;;;;;;;;;;;;;;;3.14;100.00;97222.03;5110555;28;19934;-77
2021/01/22 10:38:38;;;;;;;;;;;;;;;3.11;100.00;97216.56;5111365;28;19959;-75
2021/01/22 10:41:05;;;;;;;;;;;;;;;3.09;100.00;97207.94;5109530;28;19928;-76
2021/01/22 10:43:32;;;;;;;;;;;;;;;3.26;100.00;97209.59;5111291;28;19924;-79
2021/01/22 10:45:59;;;;;;;;;;;;;;;3.30;100.00;97200.06;5111660;28;19931;-80
2021/01/22 10:48:26;;;;;;;;;;;;;;;3.15;100.00;97197.97;5109894;28;19923;-80
2021/01/22 10:50:53;;;;;;;;;;;;;;;3.07;100.00;97174.47;5111459;28;19967;-76
2021/01/22 10:53:23;;;;;;;;;;;;;;;3.04;100.00;97169.78;5126781;27;19973;-76
2021/01/22 10:55:51;;;;;;;;;;;;;;;3.05;100.00;97177.63;5110460;28;19964;-79
2021/01/22 10:58:18;;;;;;;;;;;;;;;3.03;100.00;97159.94;5109985;28;19923;-77
2021/01/22 11:00:45;;;;;;;;;;;;;;;3.06;100.00;97167.38;5110050;28;19923;-78
2021/01/22 11:03:14;;;;;;;;;;;;;;;3.08;100.00;97154.72;5109720;28;20381;-78
2021/01/22 11:05:41;;;;;;;;;;;;;;;3.12;100.00;97149.91;5109176;28;19955;-86
2021/01/22 11:08:08;;;;;;;;;;;;;;;3.17;100.00;97162.44;5111382;28;19927;-82
2021/01/22 11:10:34;;;;;;;;;;;;;;;3.20;100.00;97156.09;5109413;28;19980;-78
2021/01/22 11:13:02;;;;;;;;;;;;;;;3.10;100.00;97135.00;5092493;28;19947;-77
2021/01/22 11:15:29;;;;;;;;;;;;;;;3.11;100.00;97120.78;5110853;28;20020;-77
2021/01/22 11:17:57;;;;;;;;;;;;;;;3.11;100.00;97164.13;5109927;28;19956;-77
2021/01/22 11:20:24;;;;;;;;;;;;;;;3.18;100.00;97156.50;5110170;28;19927;-78
2021/01/22 11:22:50;;;;;;;;;;;;;;;3.21;100.00;97136.34;5110494;28;19959;-77
2021/01/22 11:25:18;;;;;;;;;;;;;;;3.28;100.00;97147.28;5110204;28;19924;-80
2021/01/22 11:27:44;;;;;;;;;;;;;;;3.32;100.00;97147.19;5092740;28;19931;-79
2021/01/22 11:30:11;;;;;;;;;;;;;;;3.39;100.00;97138.81;5109585;28;20364;-79
2021/01/22 11:32:38;;;;;;;;;;;;;;;3.40;100.00;97154.94;5110139;28;19973;-79
2021/01/22 11:35:05;;;;;;;;;;;;;;;3.47;100.00;97148.50;5109775;28;19935;-79
2021/01/22 11:37:57;;;;;;;;;;;;;;;3.46;100.00;97146.94;5110645;28;19924;-79
2021/01/22 11:40:24;;;;;;;;;;;;;;;3.52;100.00;97150.78;5110822;28;19930;-79
2021/01/22 11:42:51;;;;;;;;;;;;;;;3.48;100.00;97139.03;5109110;28;19973;-79
2021/01/22 11:45:17;;;;;;;;;;;;;;;3.47;100.00;97143.75;5109296;28;20041;-79
2021/01/22 11:47:44;;;;;;;;;;;;;;;3.38;100.00;97151.81;5092627;28;20026;-78
2021/01/22 11:50:13;;;;;;;;;;;;;;;3.36;100.00;97120.34;5108575;28;19932;-79
2021/01/22 11:52:40;;;;;;;;;;;;;;;3.16;100.00;97156.16;5109788;28;20532;-78
2021/01/22 11:55:07;;;;;;;;;;;;;;;3.02;100.00;97145.38;5110316;28;20255;-79
2021/01/22 11:57:34;;;;;;;;;;;;;;;2.93;100.00;97152.59;5109905;28;19924;-78
2021/01/22 12:00:00;;;;;;;;;;;;;;;2.92;100.00;97140.03;5108282;28;20416;-78
2021/01/22 12:02:37;;;;;;;;;;;;;;;3.02;100.00;97158.38;5125721;28;20282;-77
2021/01/22 12:05:04;;;;;;;;;;;;;;;3.03;100.00;97157.94;5111769;28;19924;-79
2021/01/22 12:07:31;;;;;;;;;;;;;;;3.10;100.00;97171.66;5112428;28;19924;-78
2021/01/22 12:09:57;;;;;;;;;;;;;;;3.23;100.00;97177.31;5112752;28;19927;-77
2021/01/22 12:12:26;;;;;;;;;;;;;;;3.30;100.00;97182.75;5113915;28;19992;-78
2021/01/22 12:14:53;;;;;;;;;;;;;;;3.32;100.00;97185.84;5112885;28;20293;-77
2021/01/22 12:17:19;;;;;;;;;;;;;;;3.42;100.00;97179.38;5114155;28;20383;-79
2021/01/22 12:19:46;;;;;;;;;;;;;;;3.51;100.00;97182.38;5114228;28;19955;-78
2021/01/22 12:22:13;;;;;;;;;;;;;;;3.62;100.00;97191.22;5112481;28;19923;-78
2021/01/22 12:24:40;;;;;;;;;;;;;;;3.66;100.00;97183.66;5112886;28;19931;-78
2021/01/22 12:27:06;;;;;;;;;;;;;;;3.72;100.00;97181.97;5113914;28;20077;-79
2021/01/22 12:29:33;;;;;;;;;;;;;;;3.72;100.00;97176.44;5129974;28;19930;-79
2021/01/22 12:31:59;;;;;;;;;;;;;;;3.70;100.00;97176.88;5113770;28;20362;-79
2021/01/22 12:34:26;;;;;;;;;;;;;;;3.72;100.00;97168.16;5113898;28;19923;-79
2021/01/22 12:36:52;;;;;;;;;;;;;;;3.72;100.00;97168.16;5113792;28;19969;-80
2021/01/22 12:39:19;;;;;;;;;;;;;;;3.86;100.00;97167.91;5079044;28;20378;-79
2021/01/22 12:41:45;;;;;;;;;;;;;;;3.84;100.00;97128.84;5112470;28;19927;-78
2021/01/22 12:44:12;;;;;;;;;;;;;;;4.00;100.00;97128.16;5113702;28;19998;-78
2021/01/22 12:46:39;;;;;;;;;;;;;;;4.06;100.00;97113.38;5100963;28;20291;-78
2021/01/22 12:49:05;;;;;;;;;;;;;;;4.05;100.00;97117.34;5108241;28;20283;-78
2021/01/22 12:51:44;;;;;;;;;;;;;;;4.02;100.00;97118.22;5109177;28;19932;-79
2021/01/22 12:54:32;;;;;;;;;;;;;;;4.06;100.00;97113.38;5108645;28;19930;-78
2021/01/22 12:57:20;;;;;;;;;;;;;;;4.09;100.00;97100.72;5079029;28;19973;-79